Shoukeimaruno.3 — JI3587 — position and weather

sailwx.info

Track history (hours):
 
Tides and Currents Weather Stations Pressure Air Temp Water Temp Dewpoint Dewpoint Depression Visibility Wind Speed Wind Dir Waves Ship Positions

Shoukeimaruno.3

Last reported at 2015-Aug-23 00:04 UTC. Time now 2015-Aug-30 11:58 UTC.
Position N 36°48' E 141°18'.

Length 77 m; draft 4 m.

Type: Cargo ship. MMSI: 431300325.

Date/timePositionNaut miles runAvg speedWind from/ knotsBaromVisibWave heightAir tempDewpointWater temp
2015-Aug-23 00:04N 36°48' E 141°18'810.8
2015-Aug-22 23:20N 36°40' E 141°17'2210.5
2015-Aug-22 21:16N 36°19' E 141°11'810.8
2015-Aug-22 20:34N 36°12' E 141°09'1210.9
2015-Aug-22 19:28N 36°00' E 141°03'1111.2
2015-Aug-22 18:27N 35°50' E 140°58'1011.3
2015-Aug-22 17:33N 35°40' E 140°54'1211.5
2015-Aug-22 16:33N 35°31' E 140°45'1211.9
2015-Aug-22 15:31N 35°22' E 140°36'1411.3
2015-Aug-22 14:16N 35°10' E 140°26'1114.2
2015-Aug-22 13:30N 35°03' E 140°17'1313.5
2015-Aug-22 12:31N 34°55' E 140°03'24 0.5
2015-Aug-20 10:33N 35°06' E 139°37'1010.2
2015-Aug-20 09:33N 35°13' E 139°46'1111.4
2015-Aug-20 08:33N 35°23' E 139°41'1 1.1
2015-Aug-20 07:33N 35°24' E 139°40'0 0.0
2015-Aug-20 06:33N 35°24' E 139°40'0 0.0
2015-Aug-20 05:32N 35°24' E 139°40'4 4.1
2015-Aug-20 04:33N 35°26' E 139°45'1313.1
2015-Aug-20 03:33N 35°33' E 139°58'7 7.5
2015-Aug-20 02:33N 35°34' E 140°07'0 0.0
2015-Aug-20 01:33N 35°34' E 140°07'0 0.0
2015-Aug-20 00:33N 35°34' E 140°07'0 0.0
2015-Aug-19 23:33N 35°34' E 140°07'0 0.1
2015-Aug-19 22:33N 35°35' E 140°07'2 2.2
2015-Aug-19 21:33N 35°35' E 140°04'0 0.0
2015-Aug-19 20:33N 35°35' E 140°04'3 3.2
2015-Aug-19 19:33N 35°34' E 140°01'1211.6
2015-Aug-19 18:33N 35°27' E 139°49'1110.6
2015-Aug-19 17:33N 35°16' E 139°46'1211.5
2015-Aug-19 16:33N 35°05' E 139°45'12 9.9
2015-Aug-19 15:22N 34°53' E 139°48'810.3
2015-Aug-19 14:33N 34°54' E 139°58'10 9.8
2015-Aug-19 13:33N 34°60' E 140°08'23 9.4
2015-Aug-19 11:04N 35°14' E 140°30'712.0
2015-Aug-19 10:28N 35°19' E 140°36'1111.9
2015-Aug-19 09:33N 35°28' E 140°43'1312.0
2015-Aug-19 08:27N 35°39' E 140°53'  
2015-Aug-13 04:27N 36°05' E 140°43'1011.4
2015-Aug-13 03:32N 35°55' E 140°41'1 0.6
2015-Aug-13 02:32N 35°55' E 140°40'0 0.0
2015-Aug-13 01:29N 35°55' E 140°40'0 0.0
2015-Aug-13 00:33N 35°55' E 140°40'  
Track history (hours):
 
Tides and Currents Weather Stations Pressure Air Temp Water Temp Dewpoint Dewpoint Depression Visibility Wind Speed Wind Dir Waves Ship Positions

Shoukeimaruno.3

Last reported at 2015-Aug-23 00:04 UTC. Time now 2015-Aug-30 11:58 UTC.
Position N 36°48' E 141°18'.

Length 77 m; draft 4 m.

Type: Cargo ship. MMSI: 431300325.

Date/timePositionNaut miles runAvg speedWind from/ knotsBaromVisibWave heightAir tempDewpointWater temp
2015-Aug-23 00:04N 36°48' E 141°18'810.8
2015-Aug-22 23:20N 36°40' E 141°17'2210.5
2015-Aug-22 21:16N 36°19' E 141°11'810.8
2015-Aug-22 20:34N 36°12' E 141°09'1210.9
2015-Aug-22 19:28N 36°00' E 141°03'1111.2
2015-Aug-22 18:27N 35°50' E 140°58'1011.3
2015-Aug-22 17:33N 35°40' E 140°54'1211.5
2015-Aug-22 16:33N 35°31' E 140°45'1211.9
2015-Aug-22 15:31N 35°22' E 140°36'1411.3
2015-Aug-22 14:16N 35°10' E 140°26'1114.2
2015-Aug-22 13:30N 35°03' E 140°17'1313.5
2015-Aug-22 12:31N 34°55' E 140°03'24 0.5
2015-Aug-20 10:33N 35°06' E 139°37'1010.2
2015-Aug-20 09:33N 35°13' E 139°46'1111.4
2015-Aug-20 08:33N 35°23' E 139°41'1 1.1
2015-Aug-20 07:33N 35°24' E 139°40'0 0.0
2015-Aug-20 06:33N 35°24' E 139°40'0 0.0
2015-Aug-20 05:32N 35°24' E 139°40'4 4.1
2015-Aug-20 04:33N 35°26' E 139°45'1313.1
2015-Aug-20 03:33N 35°33' E 139°58'7 7.5
2015-Aug-20 02:33N 35°34' E 140°07'0 0.0
2015-Aug-20 01:33N 35°34' E 140°07'0 0.0
2015-Aug-20 00:33N 35°34' E 140°07'0 0.0
2015-Aug-19 23:33N 35°34' E 140°07'0 0.1
2015-Aug-19 22:33N 35°35' E 140°07'2 2.2
2015-Aug-19 21:33N 35°35' E 140°04'0 0.0
2015-Aug-19 20:33N 35°35' E 140°04'3 3.2
2015-Aug-19 19:33N 35°34' E 140°01'1211.6
2015-Aug-19 18:33N 35°27' E 139°49'1110.6
2015-Aug-19 17:33N 35°16' E 139°46'1211.5
2015-Aug-19 16:33N 35°05' E 139°45'12 9.9
2015-Aug-19 15:22N 34°53' E 139°48'810.3
2015-Aug-19 14:33N 34°54' E 139°58'10 9.8
2015-Aug-19 13:33N 34°60' E 140°08'23 9.4
2015-Aug-19 11:04N 35°14' E 140°30'712.0
2015-Aug-19 10:28N 35°19' E 140°36'1111.9
2015-Aug-19 09:33N 35°28' E 140°43'1312.0
2015-Aug-19 08:27N 35°39' E 140°53'  
2015-Aug-13 04:27N 36°05' E 140°43'1011.4
2015-Aug-13 03:32N 35°55' E 140°41'1 0.6
2015-Aug-13 02:32N 35°55' E 140°40'0 0.0
2015-Aug-13 01:29N 35°55' E 140°40'0 0.0
2015-Aug-13 00:33N 35°55' E 140°40'  

Dump ship's entire track history